createdAt,value
2023-01-25T00:00:06.840Z,20.10
2023-01-25T00:01:06.796Z,20.60
2023-01-25T00:02:06.818Z,20.90
2023-01-25T00:03:06.745Z,21.00
2023-01-25T00:04:06.655Z,20.80
2023-01-25T00:05:07.027Z,21.70
2023-01-25T00:06:06.567Z,21.20
2023-01-25T00:07:06.524Z,20.90
2023-01-25T00:08:06.480Z,20.70
2023-01-25T00:09:06.441Z,21.70
2023-01-25T00:10:06.390Z,21.60
2023-01-25T00:11:06.366Z,21.60
2023-01-25T00:12:06.296Z,21.10
2023-01-25T00:13:06.239Z,21.00
2023-01-25T00:14:06.200Z,21.60
2023-01-25T00:15:06.580Z,21.70
2023-01-25T00:16:06.130Z,22.40
2023-01-25T00:17:06.078Z,21.60
2023-01-25T00:18:06.015Z,22.40
2023-01-25T00:19:05.967Z,22.00
2023-01-25T00:20:05.941Z,23.10
2023-01-25T00:21:05.874Z,22.10
2023-01-25T00:22:05.833Z,21.80
2023-01-25T00:23:05.797Z,22.10
2023-01-25T00:24:05.861Z,21.90
2023-01-25T00:25:06.074Z,21.80
2023-01-25T00:26:05.648Z,22.60
2023-01-25T00:27:05.607Z,22.30
2023-01-25T00:28:05.565Z,22.50
2023-01-25T00:29:05.502Z,22.40
2023-01-25T00:30:05.472Z,22.20
2023-01-25T00:31:05.412Z,21.80
2023-01-25T00:32:05.547Z,22.10
2023-01-25T00:33:05.319Z,22.60
2023-01-25T00:34:05.278Z,22.20
2023-01-25T00:35:05.703Z,22.70
2023-01-25T00:36:05.197Z,22.60
2023-01-25T00:37:05.134Z,22.50
2023-01-25T00:38:05.090Z,22.40
2023-01-25T00:39:05.045Z,22.70
2023-01-25T00:40:04.999Z,22.60
2023-01-25T00:41:04.949Z,22.70
2023-01-25T00:42:04.916Z,22.50
2023-01-25T00:43:04.870Z,22.20
2023-01-25T00:44:04.811Z,22.60
2023-01-25T00:45:04.816Z,21.90
2023-01-25T00:46:04.779Z,22.80
2023-01-25T00:47:04.677Z,22.70
2023-01-25T00:48:04.642Z,22.30
2023-01-25T00:49:04.579Z,23.20
2023-01-25T00:50:04.544Z,22.60
2023-01-25T00:51:04.491Z,22.60
2023-01-25T00:52:04.442Z,23.30
2023-01-25T00:53:04.398Z,23.20
2023-01-25T00:54:04.362Z,22.90
2023-01-25T00:55:04.314Z,22.10
2023-01-25T00:56:04.270Z,22.50
2023-01-25T00:57:04.206Z,22.70
2023-01-25T00:58:04.177Z,22.80
2023-01-25T00:59:04.117Z,22.30
2023-01-25T01:00:04.079Z,22.60
2023-01-25T01:01:04.073Z,23.10
2023-01-25T01:02:03.985Z,22.40
2023-01-25T01:03:03.929Z,23.50
2023-01-25T01:04:05.709Z,24.00
2023-01-25T01:05:03.857Z,22.80
2023-01-25T01:06:03.808Z,22.70
2023-01-25T01:07:03.773Z,23.30
2023-01-25T01:08:03.712Z,23.00
2023-01-25T01:09:03.656Z,24.00
2023-01-25T01:10:03.623Z,23.90
2023-01-25T01:11:03.560Z,23.70
2023-01-25T01:12:03.521Z,24.40
2023-01-25T01:13:03.467Z,23.50
2023-01-25T01:14:03.425Z,23.20
2023-01-25T01:15:03.375Z,23.90
2023-01-25T01:16:03.349Z,23.40
2023-01-25T01:17:03.344Z,23.70
2023-01-25T01:18:03.248Z,24.30
2023-01-25T01:19:03.198Z,24.10
2023-01-25T01:20:03.179Z,23.70
2023-01-25T01:21:03.099Z,23.70
2023-01-25T01:22:03.060Z,24.10
2023-01-25T01:23:03.020Z,24.90
2023-01-25T01:24:03.016Z,24.60
2023-01-25T01:25:02.943Z,24.50
2023-01-25T01:26:02.877Z,24.80
2023-01-25T01:27:02.839Z,24.50
2023-01-25T01:28:02.778Z,23.80
2023-01-25T01:29:02.745Z,24.00
2023-01-25T01:30:02.713Z,24.20
2023-01-25T01:31:02.646Z,24.30
2023-01-25T01:32:02.680Z,23.80
2023-01-25T01:33:02.555Z,24.40
2023-01-25T01:34:02.513Z,24.10
2023-01-25T01:35:02.452Z,23.30
2023-01-25T01:36:02.408Z,23.60
2023-01-25T01:37:02.371Z,25.00
2023-01-25T01:38:02.339Z,24.90
2023-01-25T01:39:02.271Z,24.30
2023-01-25T01:40:02.228Z,24.20
2023-01-25T01:41:02.176Z,24.40
2023-01-25T01:42:02.157Z,25.20
2023-01-25T01:43:02.106Z,24.50
2023-01-25T01:44:02.040Z,23.80
2023-01-25T01:45:01.990Z,23.40
2023-01-25T01:46:01.985Z,24.60
2023-01-25T01:47:01.902Z,23.90
2023-01-25T01:48:01.866Z,24.70
2023-01-25T01:49:01.821Z,23.60
2023-01-25T01:50:01.786Z,24.90
2023-01-25T01:51:01.718Z,24.30
2023-01-25T01:52:01.670Z,25.10
2023-01-25T01:53:01.621Z,25.50
2023-01-25T01:54:01.611Z,26.00
2023-01-25T01:55:01.549Z,24.90
2023-01-25T01:56:01.487Z,25.70
2023-01-25T01:57:01.440Z,26.40
2023-01-25T01:58:01.397Z,26.10
2023-01-25T01:59:01.349Z,25.30
2023-01-25T02:00:01.326Z,25.00
2023-01-25T02:01:01.260Z,24.60
2023-01-25T02:02:01.213Z,24.60
2023-01-25T02:03:01.180Z,25.60
2023-01-25T02:04:01.133Z,25.40
2023-01-25T02:05:01.085Z,26.10
2023-01-25T02:06:01.035Z,25.30
2023-01-25T02:07:00.977Z,25.10
2023-01-25T02:08:00.936Z,25.40
2023-01-25T02:09:00.894Z,25.50
2023-01-25T02:10:00.839Z,25.60
2023-01-25T02:11:00.791Z,25.30
2023-01-25T02:12:00.758Z,25.50
2023-01-25T02:13:00.708Z,25.90
2023-01-25T02:14:00.663Z,25.90
2023-01-25T02:15:00.628Z,24.90
2023-01-25T02:16:00.720Z,24.60
2023-01-25T02:17:00.518Z,24.50
2023-01-25T02:18:00.473Z,24.10
2023-01-25T02:19:00.438Z,25.10
2023-01-25T02:20:00.379Z,23.80
2023-01-25T02:21:00.332Z,24.00
2023-01-25T02:22:00.292Z,23.60
2023-01-25T02:23:00.240Z,24.00
2023-01-25T02:24:00.216Z,23.80
2023-01-25T02:25:00.161Z,24.80
2023-01-25T02:26:00.128Z,24.60
2023-01-25T02:27:00.052Z,24.50
2023-01-25T02:28:00.010Z,25.30
2023-01-25T02:28:59.965Z,25.10
2023-01-25T02:29:59.917Z,25.00
2023-01-25T02:30:59.891Z,25.00
2023-01-25T02:31:59.894Z,25.90
2023-01-25T02:32:59.778Z,26.00
2023-01-25T02:33:59.732Z,26.10
2023-01-25T02:34:59.683Z,26.00
2023-01-25T02:35:59.634Z,25.50
2023-01-25T02:36:59.597Z,26.10
2023-01-25T02:37:59.560Z,25.40
2023-01-25T02:38:59.495Z,25.60
2023-01-25T02:39:59.447Z,25.40
2023-01-25T02:40:59.404Z,24.10
2023-01-25T02:41:59.366Z,25.50
2023-01-25T02:42:59.316Z,24.50
2023-01-25T02:43:59.281Z,24.90
2023-01-25T02:44:59.216Z,24.20
2023-01-25T02:45:59.213Z,24.70
2023-01-25T02:46:59.124Z,25.20
2023-01-25T02:47:59.095Z,25.10
2023-01-25T02:48:59.038Z,24.30
2023-01-25T02:49:58.992Z,25.50
2023-01-25T02:50:58.948Z,26.20
2023-01-25T02:51:58.901Z,26.30
2023-01-25T02:52:58.849Z,25.50
2023-01-25T02:53:58.814Z,25.20
2023-01-25T02:54:58.757Z,26.20
2023-01-25T02:55:58.713Z,26.10
2023-01-25T02:56:58.667Z,26.50
2023-01-25T02:57:58.619Z,24.80
2023-01-25T02:58:58.570Z,25.90
2023-01-25T02:59:58.549Z,25.20
2023-01-25T03:00:58.477Z,25.80
2023-01-25T03:01:58.526Z,25.50
2023-01-25T03:02:58.488Z,25.50
2023-01-25T03:03:58.362Z,25.60
2023-01-25T03:04:58.297Z,25.80
2023-01-25T03:05:58.254Z,26.10
2023-01-25T03:06:58.202Z,26.30
2023-01-25T03:07:58.162Z,26.00
2023-01-25T03:08:58.113Z,27.10
2023-01-25T03:09:58.080Z,26.40
2023-01-25T03:10:58.035Z,26.40
2023-01-25T03:11:57.974Z,27.60
2023-01-25T03:12:57.954Z,28.30
2023-01-25T03:13:57.882Z,27.50
2023-01-25T03:14:57.835Z,27.30
2023-01-25T03:15:57.845Z,28.10
2023-01-25T03:16:57.740Z,29.90
2023-01-25T03:17:57.701Z,29.80
2023-01-25T03:18:57.669Z,29.10
2023-01-25T03:19:57.617Z,29.20
2023-01-25T03:20:57.568Z,27.50
2023-01-25T03:21:57.519Z,27.30
2023-01-25T03:22:57.470Z,26.90
2023-01-25T03:23:57.456Z,26.70
2023-01-25T03:24:57.404Z,27.30
2023-01-25T03:25:57.331Z,26.80
2023-01-25T03:26:57.296Z,26.80
2023-01-25T03:27:57.246Z,26.60
2023-01-25T03:28:57.207Z,26.60
2023-01-25T03:29:57.144Z,27.40
2023-01-25T03:30:57.146Z,26.90
2023-01-25T03:31:57.156Z,26.50
2023-01-25T03:32:57.082Z,26.30
2023-01-25T03:33:56.967Z,27.80
2023-01-25T03:34:56.965Z,26.60
2023-01-25T03:35:56.906Z,27.10
2023-01-25T03:36:56.818Z,27.80
2023-01-25T03:37:56.779Z,26.90
2023-01-25T03:38:56.740Z,27.80
2023-01-25T03:39:56.686Z,26.80
2023-01-25T03:40:56.633Z,27.30
2023-01-25T03:41:56.592Z,27.10
2023-01-25T03:42:56.555Z,26.80
2023-01-25T03:43:56.502Z,27.30
2023-01-25T03:44:56.469Z,27.00
2023-01-25T03:45:56.415Z,27.20
2023-01-25T03:46:56.401Z,27.80
2023-01-25T03:47:56.319Z,26.90
2023-01-25T03:48:56.266Z,27.80
2023-01-25T03:49:56.270Z,28.20
2023-01-25T03:50:56.175Z,27.20
2023-01-25T03:51:56.131Z,26.80
2023-01-25T03:52:56.081Z,26.20
2023-01-25T03:53:56.051Z,25.70
2023-01-25T03:54:56.003Z,25.50
2023-01-25T03:55:55.947Z,25.90
2023-01-25T03:56:55.902Z,25.80
2023-01-25T03:57:55.862Z,24.10
2023-01-25T03:58:55.807Z,24.00
2023-01-25T03:59:55.766Z,25.00
2023-01-25T04:00:55.846Z,25.50
2023-01-25T04:01:55.768Z,25.00
2023-01-25T04:02:55.629Z,26.10
2023-01-25T04:03:55.575Z,27.10
2023-01-25T04:04:55.531Z,25.20
2023-01-25T04:05:55.489Z,25.40
2023-01-25T04:06:55.449Z,25.60
2023-01-25T04:07:55.402Z,25.40
2023-01-25T04:08:55.343Z,25.00
2023-01-25T04:09:55.303Z,25.40
2023-01-25T04:10:55.255Z,24.80
2023-01-25T04:11:55.206Z,23.90
2023-01-25T04:12:55.168Z,24.20
2023-01-25T04:13:55.117Z,25.00
2023-01-25T04:14:55.070Z,24.60
2023-01-25T04:15:55.021Z,25.30
2023-01-25T04:16:55.057Z,24.30
2023-01-25T04:17:54.939Z,25.30
2023-01-25T04:18:54.902Z,25.60
2023-01-25T04:19:54.837Z,24.70
2023-01-25T04:20:54.789Z,25.10
2023-01-25T04:21:54.745Z,25.30
2023-01-25T04:22:54.698Z,25.80
2023-01-25T04:23:54.708Z,25.40
2023-01-25T04:24:54.617Z,24.60
2023-01-25T04:25:54.575Z,24.50
2023-01-25T04:26:54.516Z,25.40
2023-01-25T04:27:54.479Z,26.00
2023-01-25T04:28:54.426Z,26.70
2023-01-25T04:29:54.376Z,25.20
2023-01-25T04:30:54.353Z,24.90
2023-01-25T04:31:54.353Z,23.90
2023-01-25T04:32:54.231Z,23.10
2023-01-25T04:33:54.187Z,23.80
2023-01-25T04:34:54.141Z,24.40
2023-01-25T04:35:54.120Z,24.30
2023-01-25T04:36:54.051Z,25.00
2023-01-25T04:37:54.009Z,25.10
2023-01-25T04:38:53.961Z,24.90
2023-01-25T04:39:53.909Z,26.00
2023-01-25T04:40:53.870Z,25.30
2023-01-25T04:41:53.827Z,23.20
2023-01-25T04:42:53.792Z,23.90
2023-01-25T04:44:03.210Z,24.60
2023-01-25T04:44:53.677Z,24.90
2023-01-25T04:45:53.693Z,24.60
2023-01-25T04:46:53.602Z,25.50
2023-01-25T04:47:53.541Z,25.10
2023-01-25T04:48:53.498Z,24.00
2023-01-25T04:49:53.459Z,25.30
2023-01-25T04:50:53.418Z,25.20
2023-01-25T04:51:53.353Z,25.10
2023-01-25T04:52:53.321Z,25.50
2023-01-25T04:53:53.265Z,25.20
2023-01-25T04:54:53.223Z,25.30
2023-01-25T04:55:53.178Z,25.60
2023-01-25T04:56:53.128Z,26.00
2023-01-25T04:57:53.085Z,25.40
2023-01-25T04:58:53.046Z,25.60
2023-01-25T04:59:52.980Z,24.90
2023-01-25T05:00:52.981Z,26.10
2023-01-25T05:01:52.891Z,25.90
2023-01-25T05:02:52.849Z,26.30
2023-01-25T05:03:52.811Z,25.20
2023-01-25T05:04:52.757Z,26.60
2023-01-25T05:05:52.706Z,26.00
2023-01-25T05:06:52.664Z,27.40
2023-01-25T05:07:52.610Z,30.40
2023-01-25T05:08:52.582Z,30.10
2023-01-25T05:09:52.520Z,31.00
2023-01-25T05:10:52.482Z,31.70
2023-01-25T05:11:52.443Z,31.50
2023-01-25T05:12:52.386Z,32.20
2023-01-25T05:13:52.341Z,33.00
2023-01-25T05:14:52.305Z,34.00
2023-01-25T05:15:52.247Z,33.60
2023-01-25T05:16:52.291Z,34.00
2023-01-25T05:17:52.151Z,34.50
2023-01-25T05:18:52.108Z,35.20
2023-01-25T05:19:52.082Z,34.60
2023-01-25T05:20:52.035Z,34.60
2023-01-25T05:21:51.968Z,34.40
2023-01-25T05:22:51.922Z,33.50
2023-01-25T05:23:51.903Z,32.50
2023-01-25T05:24:51.831Z,33.50
2023-01-25T05:25:51.786Z,32.10
2023-01-25T05:26:51.747Z,31.60
2023-01-25T05:27:51.693Z,33.20
2023-01-25T05:28:51.649Z,34.60
2023-01-25T05:29:51.606Z,33.80
2023-01-25T05:30:51.629Z,35.00
2023-01-25T05:31:51.552Z,36.90
2023-01-25T05:32:51.465Z,37.40
2023-01-25T05:33:51.414Z,37.40
2023-01-25T05:34:51.391Z,35.90
2023-01-25T05:35:51.340Z,34.90
2023-01-25T05:36:51.277Z,34.50
2023-01-25T05:37:51.238Z,33.90
2023-01-25T05:38:51.187Z,34.90
2023-01-25T05:39:51.729Z,34.60
2023-01-25T05:40:51.100Z,35.70
2023-01-25T05:41:51.043Z,37.40
2023-01-25T05:42:50.996Z,35.50
2023-01-25T05:43:50.965Z,35.70
2023-01-25T05:44:50.908Z,36.10
2023-01-25T05:45:50.905Z,36.10
2023-01-25T05:46:50.820Z,36.80
2023-01-25T05:47:50.762Z,37.10
2023-01-25T05:48:50.727Z,37.30
2023-01-25T05:49:50.679Z,37.40
2023-01-25T05:50:50.630Z,36.30
2023-01-25T05:51:50.577Z,37.60
2023-01-25T05:52:50.548Z,38.90
2023-01-25T05:53:50.492Z,38.30
2023-01-25T05:54:50.449Z,38.40
2023-01-25T05:55:50.407Z,38.80
2023-01-25T05:56:50.353Z,38.20
2023-01-25T05:57:50.304Z,39.10
2023-01-25T05:58:50.269Z,39.10
2023-01-25T05:59:50.214Z,38.90
2023-01-25T06:00:50.172Z,38.30
2023-01-25T06:01:50.138Z,39.90
2023-01-25T06:02:50.218Z,39.70
2023-01-25T06:03:50.028Z,38.50
2023-01-25T06:04:49.993Z,38.10
2023-01-25T06:05:49.932Z,38.60
2023-01-25T06:06:49.895Z,38.20
2023-01-25T06:07:49.850Z,37.90
2023-01-25T06:08:49.795Z,37.60
2023-01-25T06:09:49.747Z,37.40
2023-01-25T06:10:49.716Z,37.30
2023-01-25T06:11:49.654Z,38.10
2023-01-25T06:12:50.247Z,37.20
2023-01-25T06:13:49.573Z,39.10
2023-01-25T06:14:49.526Z,38.30
2023-01-25T06:15:49.498Z,38.90
2023-01-25T06:16:49.438Z,39.70
2023-01-25T06:17:49.377Z,38.50
2023-01-25T06:18:49.335Z,39.20
2023-01-25T06:19:49.291Z,39.20
2023-01-25T06:20:49.244Z,38.00
2023-01-25T06:21:49.195Z,38.50
2023-01-25T06:22:49.176Z,37.30
2023-01-25T06:23:49.172Z,36.40
2023-01-25T06:24:49.061Z,37.10
2023-01-25T06:25:49.046Z,37.10
2023-01-25T06:26:48.977Z,37.60
2023-01-25T06:27:48.918Z,37.00
2023-01-25T06:28:48.895Z,37.40
2023-01-25T06:29:48.829Z,36.50
2023-01-25T06:30:48.814Z,37.10
2023-01-25T06:31:48.751Z,37.50
2023-01-25T06:32:48.689Z,37.00
2023-01-25T06:33:48.662Z,37.70
2023-01-25T06:34:48.620Z,38.00
2023-01-25T06:35:48.550Z,39.70
2023-01-25T06:36:48.505Z,38.90
2023-01-25T06:37:48.455Z,39.50
2023-01-25T06:38:48.416Z,39.70
2023-01-25T06:39:48.375Z,39.60
2023-01-25T06:40:48.323Z,39.60
2023-01-25T06:41:48.275Z,40.30
2023-01-25T06:42:48.282Z,39.10
2023-01-25T06:43:48.276Z,39.60
2023-01-25T06:44:48.135Z,40.60
2023-01-25T06:45:48.106Z,40.40
2023-01-25T06:46:48.099Z,40.90
2023-01-25T06:47:48.003Z,41.10
2023-01-25T06:48:47.957Z,43.00
2023-01-25T06:49:47.911Z,41.30
2023-01-25T06:50:47.868Z,42.30
2023-01-25T06:51:47.823Z,40.90
2023-01-25T06:52:47.767Z,41.80
2023-01-25T06:53:47.721Z,40.20
2023-01-25T06:54:47.674Z,39.80
2023-01-25T06:55:47.626Z,40.40
2023-01-25T06:56:47.623Z,41.40
2023-01-25T06:57:47.543Z,41.80
2023-01-25T06:58:47.512Z,40.50
2023-01-25T06:59:47.445Z,42.00
2023-01-25T07:00:47.402Z,40.50
2023-01-25T07:01:47.392Z,40.60
2023-01-25T07:02:47.349Z,40.80
2023-01-25T07:03:47.271Z,40.00
2023-01-25T07:04:47.222Z,41.10
2023-01-25T07:05:47.177Z,39.90
2023-01-25T07:06:47.126Z,40.20
2023-01-25T07:07:47.076Z,40.80
2023-01-25T07:08:47.044Z,39.10
2023-01-25T07:09:46.985Z,40.70
2023-01-25T07:10:47.006Z,41.10
2023-01-25T07:11:46.894Z,41.40
2023-01-25T07:12:46.860Z,40.00
2023-01-25T07:13:46.830Z,41.40
2023-01-25T07:14:46.758Z,41.00
2023-01-25T07:15:46.735Z,40.80
2023-01-25T07:16:46.684Z,41.60
2023-01-25T07:17:46.613Z,40.80
2023-01-25T07:18:46.574Z,40.90
2023-01-25T07:19:46.542Z,40.30
2023-01-25T07:20:46.480Z,40.70
2023-01-25T07:21:46.441Z,41.60
2023-01-25T07:22:46.384Z,41.10
2023-01-25T07:23:46.396Z,40.60
2023-01-25T07:24:46.295Z,40.40
2023-01-25T07:25:46.246Z,42.20
2023-01-25T07:26:46.213Z,40.70
2023-01-25T07:27:46.152Z,41.50
2023-01-25T07:28:46.122Z,41.10
2023-01-25T07:29:46.061Z,40.60
2023-01-25T07:30:46.018Z,41.90
2023-01-25T07:31:46.054Z,40.50
2023-01-25T07:32:45.946Z,41.40
2023-01-25T07:33:45.876Z,40.40
2023-01-25T07:34:45.832Z,41.80
2023-01-25T07:35:45.784Z,41.10
2023-01-25T07:36:45.784Z,41.80
2023-01-25T07:37:45.693Z,41.40
2023-01-25T07:38:45.667Z,41.90
2023-01-25T07:39:45.615Z,42.10
2023-01-25T07:40:45.557Z,43.00
2023-01-25T07:41:45.506Z,41.90
2023-01-25T07:42:45.468Z,43.10
2023-01-25T07:43:45.414Z,41.50
2023-01-25T07:44:45.382Z,42.90
2023-01-25T07:45:45.323Z,42.10
2023-01-25T07:46:45.291Z,41.50
2023-01-25T07:47:45.233Z,42.20
2023-01-25T07:48:45.213Z,41.20
2023-01-25T07:49:45.139Z,39.60
2023-01-25T07:50:45.101Z,40.90
2023-01-25T07:51:45.059Z,39.80
2023-01-25T07:52:45.007Z,41.10
2023-01-25T07:53:44.965Z,40.20
2023-01-25T07:54:44.921Z,40.40
2023-01-25T07:55:44.882Z,40.70
2023-01-25T07:56:44.837Z,41.60
2023-01-25T07:57:44.769Z,40.30
2023-01-25T07:58:44.726Z,41.20
2023-01-25T07:59:44.685Z,40.80
2023-01-25T08:00:44.656Z,39.80
2023-01-25T08:01:44.614Z,40.90
2023-01-25T08:02:44.564Z,42.40
2023-01-25T08:03:44.518Z,39.60
2023-01-25T08:04:44.456Z,39.70
2023-01-25T08:05:44.406Z,41.10
2023-01-25T08:06:44.364Z,41.10
2023-01-25T08:07:44.314Z,40.10
2023-01-25T08:08:44.271Z,40.40
2023-01-25T08:09:44.233Z,41.80
2023-01-25T08:10:44.170Z,41.00
2023-01-25T08:11:44.129Z,42.80
2023-01-25T08:12:44.081Z,43.90
2023-01-25T08:13:44.036Z,43.20
2023-01-25T08:14:43.989Z,41.50
2023-01-25T08:15:43.955Z,43.00
2023-01-25T08:16:43.925Z,42.10
2023-01-25T08:17:43.859Z,41.90
2023-01-25T08:18:43.812Z,42.60
2023-01-25T08:19:43.758Z,40.90
2023-01-25T08:20:43.714Z,41.90
2023-01-25T08:21:43.682Z,41.50
2023-01-25T08:22:43.638Z,41.30
2023-01-25T08:23:43.574Z,41.50
2023-01-25T08:24:43.647Z,42.20
2023-01-25T08:25:43.495Z,42.50
2023-01-25T08:26:43.464Z,40.90
2023-01-25T08:27:43.396Z,41.00
2023-01-25T08:28:43.358Z,40.80
2023-01-25T08:29:43.295Z,42.10
2023-01-25T08:30:55.766Z,41.60
2023-01-25T08:31:43.234Z,42.40
2023-01-25T08:32:43.155Z,42.20
2023-01-25T08:33:43.120Z,41.90
2023-01-25T08:34:43.065Z,43.40
2023-01-25T08:35:43.044Z,41.50
2023-01-25T08:36:42.984Z,42.90
2023-01-25T08:37:43.009Z,41.90
2023-01-25T08:38:42.884Z,40.80
2023-01-25T08:39:42.834Z,41.20
2023-01-25T08:40:42.788Z,40.90
2023-01-25T08:41:42.785Z,42.70
2023-01-25T08:42:42.696Z,40.80
2023-01-25T08:43:42.652Z,41.60
2023-01-25T08:44:42.608Z,41.10
2023-01-25T08:45:42.557Z,41.20
2023-01-25T08:46:42.543Z,41.30
2023-01-25T08:47:42.479Z,42.60
2023-01-25T08:48:42.420Z,41.20
2023-01-25T08:49:42.389Z,40.80
2023-01-25T08:50:42.329Z,41.20
2023-01-25T08:51:42.280Z,41.80
2023-01-25T08:52:42.239Z,41.20
2023-01-25T08:53:42.193Z,42.50
2023-01-25T08:54:42.146Z,39.90
2023-01-25T08:55:42.116Z,41.30
2023-01-25T08:56:42.045Z,41.20
2023-01-25T08:57:42.013Z,40.60
2023-01-25T08:58:41.957Z,41.30
2023-01-25T08:59:41.918Z,40.40
2023-01-25T09:00:41.866Z,40.00
2023-01-25T09:01:41.837Z,40.60
2023-01-25T09:02:41.772Z,40.50
2023-01-25T09:03:41.771Z,41.80
2023-01-25T09:04:41.689Z,42.10
2023-01-25T09:05:41.648Z,42.00
2023-01-25T09:06:41.600Z,41.20
2023-01-25T09:07:41.559Z,41.30
2023-01-25T09:08:41.503Z,40.60
2023-01-25T09:09:41.461Z,41.00
2023-01-25T09:10:41.409Z,40.70
2023-01-25T09:11:41.361Z,41.30
2023-01-25T09:12:41.326Z,40.80
2023-01-25T09:13:41.272Z,41.30
2023-01-25T09:14:41.228Z,42.20
2023-01-25T09:15:41.179Z,40.90
2023-01-25T09:16:41.131Z,41.90
2023-01-25T09:17:41.091Z,41.60
2023-01-25T09:18:41.052Z,41.70
2023-01-25T09:19:41.004Z,43.50
2023-01-25T09:20:40.950Z,42.50
2023-01-25T09:21:40.929Z,42.70
2023-01-25T09:22:40.853Z,42.50
2023-01-25T09:23:51.001Z,41.90
2023-01-25T09:24:40.806Z,41.80
2023-01-25T09:25:40.728Z,43.30
2023-01-25T09:26:40.896Z,42.10
2023-01-25T09:27:40.628Z,42.30
2023-01-25T09:28:40.578Z,43.00
2023-01-25T09:29:43.774Z,42.10
2023-01-25T09:30:47.178Z,42.30
2023-01-25T09:31:41.118Z,42.90
2023-01-25T09:32:40.504Z,42.70
2023-01-25T09:33:40.354Z,42.40
2023-01-25T09:34:40.301Z,43.20
2023-01-25T09:35:40.263Z,42.90
2023-01-25T09:36:40.261Z,42.90
2023-01-25T09:37:40.191Z,44.30
2023-01-25T09:38:40.137Z,43.70
2023-01-25T09:39:40.084Z,42.90
2023-01-25T09:40:40.033Z,42.70
2023-01-25T09:41:39.987Z,42.90
2023-01-25T09:42:39.942Z,44.50
2023-01-25T09:43:39.892Z,43.60
2023-01-25T09:44:39.845Z,44.80
2023-01-25T09:45:39.799Z,44.70
2023-01-25T09:46:39.809Z,44.90
2023-01-25T09:47:39.721Z,44.00
2023-01-25T09:48:39.658Z,43.90
2023-01-25T09:49:39.624Z,44.50
2023-01-25T09:50:39.573Z,44.70
2023-01-25T09:51:39.527Z,45.30
2023-01-25T09:52:39.511Z,45.50
2023-01-25T09:53:39.439Z,45.20
2023-01-25T09:54:46.630Z,46.80
2023-01-25T09:55:39.345Z,46.80
2023-01-25T09:56:39.294Z,46.40
2023-01-25T09:57:39.248Z,45.60
2023-01-25T09:58:39.220Z,46.30
2023-01-25T09:59:39.166Z,46.80
2023-01-25T10:00:39.125Z,44.90
2023-01-25T10:01:39.469Z,44.70
2023-01-25T10:02:39.109Z,46.10
2023-01-25T10:03:38.990Z,44.50
2023-01-25T10:04:38.938Z,45.80
2023-01-25T10:05:38.884Z,45.30
2023-01-25T10:06:40.619Z,45.10
2023-01-25T10:07:38.789Z,45.80
2023-01-25T10:08:38.766Z,44.50
2023-01-25T10:09:38.704Z,44.00
2023-01-25T10:10:38.655Z,45.70
2023-01-25T10:11:38.615Z,45.90
2023-01-25T10:12:38.560Z,46.70
2023-01-25T10:13:38.537Z,46.60
2023-01-25T10:14:39.237Z,46.70
2023-01-25T10:15:38.497Z,46.00
2023-01-25T10:16:38.419Z,48.80
2023-01-25T10:17:38.346Z,47.30
2023-01-25T10:18:38.328Z,47.80
2023-01-25T10:19:38.782Z,46.40
2023-01-25T10:20:38.215Z,46.20
2023-01-25T10:21:38.154Z,47.20
2023-01-25T10:22:38.117Z,48.40
2023-01-25T10:23:38.062Z,46.80
2023-01-25T10:24:38.020Z,47.70
2023-01-25T10:25:38.000Z,46.40
2023-01-25T10:26:37.929Z,46.10
2023-01-25T10:27:37.882Z,47.00
2023-01-25T10:28:37.839Z,47.00
2023-01-25T10:29:37.787Z,47.00
2023-01-25T10:30:37.769Z,45.50
2023-01-25T10:31:37.725Z,47.20
2023-01-25T10:32:47.554Z,46.00
2023-01-25T10:33:38.704Z,44.90
2023-01-25T10:34:54.360Z,46.30
2023-01-25T10:35:41.251Z,46.50
2023-01-25T10:36:37.481Z,45.70
2023-01-25T10:37:37.442Z,45.70
2023-01-25T10:38:37.376Z,46.10
2023-01-25T10:39:37.333Z,45.00
2023-01-25T10:40:37.297Z,44.10
2023-01-25T10:41:37.246Z,45.20
2023-01-25T10:42:37.201Z,44.90
2023-01-25T10:43:37.173Z,46.40
2023-01-25T10:44:46.300Z,45.90
2023-01-25T10:45:37.059Z,46.60
2023-01-25T10:46:37.021Z,46.20
2023-01-25T10:47:36.966Z,45.50
2023-01-25T10:48:36.930Z,46.70
2023-01-25T10:49:36.885Z,45.50
2023-01-25T10:50:36.833Z,46.40
2023-01-25T10:51:36.784Z,45.70
2023-01-25T10:52:36.766Z,44.60
2023-01-25T10:53:36.705Z,44.40
2023-01-25T10:54:36.648Z,43.90
2023-01-25T10:55:36.602Z,43.40
2023-01-25T10:56:36.558Z,42.80
2023-01-25T10:57:36.515Z,43.70
2023-01-25T10:58:36.476Z,44.80
2023-01-25T10:59:36.426Z,45.30
2023-01-25T11:00:36.373Z,45.20
2023-01-25T11:01:36.383Z,46.00
2023-01-25T11:02:36.317Z,45.50
2023-01-25T11:03:36.284Z,45.60
2023-01-25T11:04:36.229Z,45.30
2023-01-25T11:05:36.150Z,45.90
2023-01-25T11:06:36.109Z,46.30
2023-01-25T11:07:36.059Z,46.70
2023-01-25T11:08:36.019Z,46.20
2023-01-25T11:09:35.973Z,46.30
2023-01-25T11:10:35.922Z,46.10
2023-01-25T11:11:35.876Z,46.60
2023-01-25T11:12:35.827Z,46.80
2023-01-25T11:13:35.791Z,46.30
2023-01-25T11:14:35.735Z,45.90
2023-01-25T11:15:35.729Z,45.20
2023-01-25T11:16:35.644Z,45.00
2023-01-25T11:17:35.600Z,44.60
2023-01-25T11:18:35.575Z,43.90
2023-01-25T11:19:35.534Z,44.70
2023-01-25T11:20:35.480Z,45.80
2023-01-25T11:21:35.442Z,44.70
2023-01-25T11:22:35.371Z,45.10
2023-01-25T11:23:35.335Z,44.00
2023-01-25T11:24:35.284Z,43.80
2023-01-25T11:25:35.254Z,44.70
2023-01-25T11:26:35.189Z,45.10
2023-01-25T11:27:35.147Z,44.60
2023-01-25T11:28:35.105Z,43.20
2023-01-25T11:29:35.059Z,44.60
2023-01-25T11:30:35.011Z,45.40
2023-01-25T11:31:35.439Z,45.50
2023-01-25T11:32:34.923Z,44.60
2023-01-25T11:33:34.892Z,44.00
2023-01-25T11:34:34.823Z,44.00
2023-01-25T11:35:34.780Z,44.60
2023-01-25T11:36:34.734Z,45.70
2023-01-25T11:37:34.708Z,46.00
2023-01-25T11:38:34.644Z,44.00
2023-01-25T11:39:34.598Z,44.70
2023-01-25T11:40:34.553Z,44.20
2023-01-25T11:41:35.235Z,44.40
2023-01-25T11:42:34.482Z,45.10
2023-01-25T11:43:34.447Z,44.30
2023-01-25T11:44:34.370Z,44.50
2023-01-25T11:45:34.325Z,45.40
2023-01-25T11:46:34.299Z,45.10
2023-01-25T11:47:34.258Z,44.00
2023-01-25T11:48:34.190Z,44.80
2023-01-25T11:49:34.827Z,44.70
2023-01-25T11:50:34.099Z,43.70
2023-01-25T11:51:34.049Z,44.50
2023-01-25T11:52:34.004Z,44.80
2023-01-25T11:53:33.960Z,45.40
2023-01-25T11:54:33.927Z,45.70
2023-01-25T11:55:33.876Z,45.90
2023-01-25T11:56:33.828Z,45.30
2023-01-25T11:57:33.781Z,45.00
2023-01-25T11:58:33.729Z,46.20
2023-01-25T11:59:33.691Z,47.30
2023-01-25T12:00:33.652Z,45.90
2023-01-25T12:01:33.635Z,44.30
2023-01-25T12:02:33.583Z,46.50
2023-01-25T12:03:33.556Z,46.70
2023-01-25T12:04:33.460Z,45.70
2023-01-25T12:05:33.427Z,44.00
2023-01-25T12:06:33.382Z,43.80
2023-01-25T12:07:33.323Z,44.90
2023-01-25T12:08:33.270Z,43.70
2023-01-25T12:09:33.229Z,44.30
2023-01-25T12:10:33.182Z,43.30
2023-01-25T12:11:33.144Z,44.80
2023-01-25T12:12:33.096Z,43.80
2023-01-25T12:13:33.053Z,45.90
2023-01-25T12:14:33.018Z,45.10
2023-01-25T12:15:32.986Z,45.90
2023-01-25T12:16:32.908Z,44.90
2023-01-25T12:17:32.864Z,45.50
2023-01-25T12:18:32.827Z,45.90
2023-01-25T12:19:32.774Z,46.10
2023-01-25T12:20:32.733Z,44.20
2023-01-25T12:21:32.687Z,46.00
2023-01-25T12:22:32.642Z,45.50
2023-01-25T12:23:32.600Z,45.50
2023-01-25T12:24:32.559Z,45.20
2023-01-25T12:25:32.499Z,45.20
2023-01-25T12:26:32.459Z,44.60
2023-01-25T12:27:32.418Z,43.90
2023-01-25T12:28:32.682Z,44.70
2023-01-25T12:29:32.323Z,44.50
2023-01-25T12:30:32.337Z,43.30
2023-01-25T12:31:32.282Z,45.60
2023-01-25T12:32:32.185Z,44.50
2023-01-25T12:33:32.135Z,46.00
2023-01-25T12:34:32.094Z,46.10
2023-01-25T12:35:32.044Z,45.80
2023-01-25T12:36:32.013Z,45.90
2023-01-25T12:37:31.952Z,45.10
2023-01-25T12:38:31.905Z,46.40
2023-01-25T12:39:31.864Z,47.10
2023-01-25T12:40:31.823Z,45.50
2023-01-25T12:41:31.785Z,46.50
2023-01-25T12:42:31.724Z,45.30
2023-01-25T12:43:31.686Z,46.00
2023-01-25T12:44:31.647Z,44.30
2023-01-25T12:45:31.598Z,45.00
2023-01-25T12:46:31.549Z,46.20
2023-01-25T12:47:31.507Z,45.90
2023-01-25T12:48:31.479Z,45.50
2023-01-25T12:49:31.409Z,47.00
2023-01-25T12:50:31.367Z,46.40
2023-01-25T12:51:31.317Z,46.30